createdAt,value
2023-01-07T00:00:51.926Z,11.90
2023-01-07T00:03:19.739Z,13.55
2023-01-07T00:05:47.213Z,9.05
2023-01-07T00:08:14.696Z,13.80
2023-01-07T00:10:42.208Z,10.55
2023-01-07T00:13:09.702Z,11.30
2023-01-07T00:15:37.373Z,9.32
2023-01-07T00:18:06.297Z,10.20
2023-01-07T00:20:33.779Z,12.85
2023-01-07T00:23:01.256Z,11.35
2023-01-07T00:25:29.679Z,8.38
2023-01-07T00:27:57.147Z,8.15
2023-01-07T00:30:24.665Z,9.48
2023-01-07T00:32:59.799Z,7.43
2023-01-07T00:35:28.745Z,8.48
2023-01-07T00:37:56.243Z,7.70
2023-01-07T00:40:24.160Z,7.75
2023-01-07T00:43:01.618Z,8.02
2023-01-07T00:45:31.368Z,7.82
2023-01-07T00:47:59.513Z,11.63
2023-01-07T00:50:30.368Z,10.02
2023-01-07T00:52:57.897Z,8.73
2023-01-07T00:55:26.021Z,10.93
2023-01-07T00:57:54.437Z,8.13
2023-01-07T01:00:23.907Z,10.60
2023-01-07T01:02:52.141Z,9.68
2023-01-07T01:05:20.750Z,9.90
2023-01-07T01:07:49.913Z,8.48
2023-01-07T01:10:18.978Z,7.90
2023-01-07T01:12:47.543Z,7.90
2023-01-07T01:15:16.540Z,6.80
2023-01-07T01:17:44.044Z,6.68
2023-01-07T01:20:13.809Z,7.32
2023-01-07T01:22:41.706Z,6.72
2023-01-07T01:25:10.955Z,6.72
2023-01-07T01:27:38.677Z,6.50
2023-01-07T01:30:07.875Z,8.27
2023-01-07T01:32:35.583Z,6.30
2023-01-07T01:35:03.078Z,6.78
2023-01-07T01:37:30.552Z,6.68
2023-01-07T01:39:58.089Z,7.15
2023-01-07T01:42:26.864Z,6.97
2023-01-07T01:44:56.420Z,9.82
2023-01-07T01:47:33.114Z,7.95
2023-01-07T01:50:04.265Z,10.85
2023-01-07T01:52:37.669Z,8.32
2023-01-07T01:55:06.748Z,9.38
2023-01-07T01:57:37.286Z,8.95
2023-01-07T02:00:06.584Z,10.02
2023-01-07T02:02:36.110Z,6.72
2023-01-07T02:05:04.049Z,7.70
2023-01-07T02:07:31.550Z,8.98
2023-01-07T02:10:01.321Z,9.25
2023-01-07T02:12:40.366Z,9.88
2023-01-07T02:15:12.341Z,33.83
2023-01-07T02:17:51.931Z,13.17
2023-01-07T02:20:27.896Z,21.23
2023-01-07T02:23:19.396Z,19.52
2023-01-07T02:25:58.282Z,19.05
2023-01-07T02:28:55.913Z,32.78
2023-01-07T02:31:53.403Z,10.85
2023-01-07T02:34:23.773Z,21.17
2023-01-07T02:36:53.239Z,20.77
2023-01-07T02:39:30.887Z,20.35
2023-01-07T02:41:59.840Z,12.80
2023-01-07T02:44:33.426Z,10.25
2023-01-07T02:47:08.010Z,10.65
2023-01-07T02:49:36.209Z,8.82
2023-01-07T02:52:18.019Z,7.57
2023-01-07T02:54:46.380Z,12.38
2023-01-07T02:57:37.354Z,6.68
2023-01-07T03:00:15.402Z,8.57
2023-01-07T03:03:08.076Z,8.88
2023-01-07T03:05:44.790Z,12.27
2023-01-07T03:08:22.362Z,11.23
2023-01-07T03:10:56.743Z,9.85
2023-01-07T03:13:25.817Z,11.35
2023-01-07T03:15:57.472Z,12.10
2023-01-07T03:18:29.338Z,8.05
2023-01-07T03:20:59.306Z,6.00
2023-01-07T03:23:28.120Z,6.35
2023-01-07T03:25:56.910Z,5.50
2023-01-07T03:28:27.195Z,4.95
2023-01-07T03:30:55.778Z,5.03
2023-01-07T03:33:27.611Z,5.05
2023-01-07T03:35:57.067Z,5.13
2023-01-07T03:38:25.204Z,4.95
2023-01-07T03:40:53.039Z,5.22
2023-01-07T03:43:21.147Z,4.85
2023-01-07T03:45:49.469Z,5.18
2023-01-07T03:48:17.025Z,5.45
2023-01-07T03:50:45.838Z,5.22
2023-01-07T03:53:13.301Z,5.03
2023-01-07T03:55:40.864Z,4.38
2023-01-07T03:58:08.373Z,4.80
2023-01-07T04:00:35.852Z,5.70
2023-01-07T04:03:03.342Z,5.47
2023-01-07T04:05:30.833Z,4.43
2023-01-07T04:07:59.822Z,4.55
2023-01-07T04:10:27.301Z,4.85
2023-01-07T04:12:54.798Z,4.00
2023-01-07T04:15:22.316Z,4.00
2023-01-07T04:17:49.832Z,3.80
2023-01-07T04:20:17.439Z,4.15
2023-01-07T04:22:44.901Z,3.53
2023-01-07T04:25:13.718Z,3.60
2023-01-07T04:27:41.912Z,4.13
2023-01-07T04:30:10.380Z,3.70
2023-01-07T04:32:37.900Z,3.90
2023-01-07T04:35:05.982Z,3.50
2023-01-07T04:37:33.480Z,3.60
2023-01-07T04:40:00.984Z,3.83
2023-01-07T04:42:29.756Z,4.10
2023-01-07T04:44:57.234Z,4.00
2023-01-07T04:47:24.695Z,3.55
2023-01-07T04:49:52.178Z,3.58
2023-01-07T04:52:19.694Z,3.70
2023-01-07T04:54:47.169Z,3.80
2023-01-07T04:57:14.885Z,3.40
2023-01-07T04:59:43.724Z,3.80
2023-01-07T05:02:11.294Z,3.75
2023-01-07T05:04:38.846Z,3.75
2023-01-07T05:07:06.381Z,3.92
2023-01-07T05:09:34.637Z,3.65
2023-01-07T05:12:02.120Z,3.70
2023-01-07T05:14:29.596Z,3.88
2023-01-07T05:16:58.486Z,3.75
2023-01-07T05:19:26.022Z,3.40
2023-01-07T05:21:54.257Z,4.10
2023-01-07T05:24:22.072Z,7.05
2023-01-07T05:26:49.588Z,6.78
2023-01-07T05:29:17.087Z,14.90
2023-01-07T05:31:44.588Z,3.97
2023-01-07T05:34:13.358Z,4.22
2023-01-07T05:36:40.871Z,3.25
2023-01-07T05:39:08.361Z,3.85
2023-01-07T05:41:35.857Z,3.45
2023-01-07T05:44:03.341Z,4.70
2023-01-07T05:46:30.870Z,5.18
2023-01-07T05:48:58.358Z,5.97
2023-01-07T05:51:27.163Z,4.22
2023-01-07T05:53:55.425Z,4.28
2023-01-07T05:56:23.109Z,5.22
2023-01-07T05:58:50.584Z,4.43
2023-01-07T06:01:18.141Z,4.13
2023-01-07T06:03:46.307Z,5.82
2023-01-07T06:06:13.836Z,4.00
2023-01-07T06:08:42.688Z,4.13
2023-01-07T06:11:10.457Z,3.50
2023-01-07T06:13:37.956Z,5.68
2023-01-07T06:16:07.608Z,4.57
2023-01-07T06:18:35.428Z,6.07
2023-01-07T06:21:03.031Z,3.40
2023-01-07T06:23:31.355Z,4.10
2023-01-07T06:26:00.336Z,5.93
2023-01-07T06:28:27.829Z,7.22
2023-01-07T06:30:55.356Z,7.75
2023-01-07T06:33:23.293Z,7.00
2023-01-07T06:35:51.396Z,4.20
2023-01-07T06:38:18.949Z,4.35
2023-01-07T06:40:46.634Z,4.53
2023-01-07T06:43:15.438Z,5.40
2023-01-07T06:45:43.244Z,5.38
2023-01-07T06:48:10.727Z,5.72
2023-01-07T06:50:38.200Z,4.55
2023-01-07T06:53:05.707Z,5.50
2023-01-07T06:55:33.186Z,5.53
2023-01-07T06:58:00.651Z,5.55
2023-01-07T07:00:29.489Z,5.65
2023-01-07T07:02:57.040Z,5.22
2023-01-07T07:05:24.578Z,4.15
2023-01-07T07:07:52.033Z,5.20
2023-01-07T07:10:19.715Z,4.20
2023-01-07T07:12:47.189Z,4.85
2023-01-07T07:15:14.825Z,4.85
2023-01-07T07:17:43.643Z,4.80
2023-01-07T07:20:12.220Z,54.13
2023-01-07T07:22:39.691Z,10.93
2023-01-07T07:25:07.705Z,24.58
2023-01-07T07:27:35.194Z,9.38
2023-01-07T07:30:02.756Z,14.50
2023-01-07T07:32:30.299Z,8.13
2023-01-07T07:34:59.110Z,27.70
2023-01-07T07:37:26.590Z,5.32
2023-01-07T07:39:54.066Z,4.30
2023-01-07T07:42:21.541Z,4.72
2023-01-07T07:44:50.105Z,6.10
2023-01-07T07:47:17.642Z,3.40
2023-01-07T07:49:45.126Z,4.85
2023-01-07T07:52:13.901Z,3.60
2023-01-07T07:54:41.382Z,4.38
2023-01-07T07:57:08.874Z,3.25
2023-01-07T07:59:36.416Z,3.95
2023-01-07T08:02:03.942Z,3.38
2023-01-07T08:04:34.176Z,3.53
2023-01-07T08:07:01.744Z,4.13
2023-01-07T08:09:30.560Z,5.85
2023-01-07T08:11:58.094Z,4.88
2023-01-07T08:14:26.158Z,6.70
2023-01-07T08:16:53.669Z,12.07
2023-01-07T08:19:21.157Z,6.22
2023-01-07T08:21:49.146Z,5.97
2023-01-07T08:24:16.667Z,6.15
2023-01-07T08:26:45.433Z,4.60
2023-01-07T08:29:13.001Z,6.38
2023-01-07T08:31:40.596Z,5.38
2023-01-07T08:34:08.090Z,4.68
2023-01-07T08:36:35.569Z,5.18
2023-01-07T08:39:03.048Z,9.50
2023-01-07T08:41:30.828Z,5.80
2023-01-07T08:43:59.641Z,5.97
2023-01-07T08:46:27.147Z,7.70
2023-01-07T08:48:54.658Z,5.45
2023-01-07T08:51:22.163Z,5.05
2023-01-07T08:53:49.669Z,7.55
2023-01-07T08:56:17.177Z,6.10
2023-01-07T08:58:44.735Z,7.57
2023-01-07T09:01:13.930Z,7.15
2023-01-07T09:03:41.518Z,12.55
2023-01-07T09:06:09.271Z,5.10
2023-01-07T09:08:36.956Z,16.45
2023-01-07T09:11:04.429Z,7.70
2023-01-07T09:13:31.927Z,6.32
2023-01-07T09:16:00.059Z,6.65
2023-01-07T09:18:28.984Z,6.78
2023-01-07T09:20:56.444Z,6.15
2023-01-07T09:23:23.978Z,6.00
2023-01-07T09:25:51.445Z,6.25
2023-01-07T09:28:18.932Z,6.95
2023-01-07T09:30:46.399Z,7.47
2023-01-07T09:33:14.005Z,5.70
2023-01-07T09:35:42.787Z,7.40
2023-01-07T09:38:10.331Z,8.25
2023-01-07T09:40:40.419Z,7.47
2023-01-07T09:43:11.996Z,5.97
2023-01-07T09:45:42.733Z,5.68
2023-01-07T09:48:16.146Z,7.05
2023-01-07T09:50:52.299Z,6.88
2023-01-07T09:53:23.247Z,5.90
2023-01-07T09:56:11.177Z,6.07
2023-01-07T09:58:48.484Z,5.47
2023-01-07T10:01:23.690Z,5.57
2023-01-07T10:03:55.978Z,6.03
2023-01-07T10:06:42.222Z,5.60
2023-01-07T10:09:20.615Z,6.07
2023-01-07T10:11:57.631Z,5.55
2023-01-07T10:14:52.271Z,5.28
2023-01-07T10:17:30.925Z,4.90
2023-01-07T10:20:02.189Z,4.88
2023-01-07T10:22:33.356Z,5.38
2023-01-07T10:25:03.214Z,4.88
2023-01-07T10:27:33.890Z,5.10
2023-01-07T10:30:03.797Z,4.53
2023-01-07T10:32:33.743Z,4.53
2023-01-07T10:35:02.391Z,5.70
2023-01-07T10:37:33.544Z,5.55
2023-01-07T10:40:16.290Z,4.90
2023-01-07T10:42:50.837Z,4.57
2023-01-07T10:45:39.227Z,5.00
2023-01-07T10:48:19.655Z,3.97
2023-01-07T10:50:58.504Z,5.13
2023-01-07T10:53:35.859Z,3.80
2023-01-07T10:56:11.704Z,3.63
2023-01-07T10:58:40.614Z,4.57
2023-01-07T11:01:08.693Z,3.63
2023-01-07T11:03:38.815Z,4.40
2023-01-07T11:06:10.113Z,4.88
2023-01-07T11:08:40.718Z,4.22
2023-01-07T11:11:13.105Z,4.82
2023-01-07T11:13:43.018Z,4.70
2023-01-07T11:16:11.765Z,4.65
2023-01-07T11:18:45.481Z,3.85
2023-01-07T11:21:44.415Z,4.35
2023-01-07T11:24:02.732Z,2.75
2023-01-07T11:26:32.472Z,2.47
2023-01-07T11:29:02.092Z,3.58
2023-01-07T11:31:48.336Z,3.60
2023-01-07T11:34:23.417Z,4.00
2023-01-07T11:36:51.052Z,4.13
2023-01-07T11:39:22.791Z,5.13
2023-01-07T11:41:58.695Z,4.10
2023-01-07T11:44:27.203Z,4.93
2023-01-07T11:46:55.332Z,5.78
2023-01-07T11:49:27.806Z,5.20
2023-01-07T11:51:55.489Z,4.60
2023-01-07T11:54:26.555Z,3.38
2023-01-07T11:56:55.403Z,4.05
2023-01-07T11:59:29.947Z,4.07
2023-01-07T12:01:59.944Z,4.05
2023-01-07T12:04:29.138Z,2.75
2023-01-07T12:06:59.592Z,3.60
2023-01-07T12:09:36.868Z,4.18
2023-01-07T12:12:31.300Z,3.00
2023-01-07T12:15:00.055Z,3.70
2023-01-07T12:17:29.027Z,3.90
2023-01-07T12:20:06.897Z,2.17
2023-01-07T12:22:42.123Z,2.55
2023-01-07T12:25:34.597Z,3.20
2023-01-07T12:28:11.776Z,2.63
2023-01-07T12:30:49.533Z,3.55
2023-01-07T12:33:26.718Z,2.55
2023-01-07T12:35:56.914Z,2.13
2023-01-07T12:38:26.992Z,2.55
2023-01-07T12:40:57.789Z,2.83
2023-01-07T12:43:27.144Z,2.47
2023-01-07T12:45:56.536Z,2.72
2023-01-07T12:48:29.923Z,2.40
2023-01-07T12:50:58.819Z,2.25
2023-01-07T12:53:32.927Z,2.40
2023-01-07T12:56:04.384Z,1.92
2023-01-07T12:58:52.424Z,2.38
2023-01-07T13:01:26.350Z,1.88
2023-01-07T13:04:03.011Z,2.83
2023-01-07T13:06:42.597Z,2.50
2023-01-07T13:09:17.655Z,2.42
2023-01-07T13:12:07.329Z,3.00
2023-01-07T13:14:57.638Z,3.08
2023-01-07T13:17:27.349Z,2.90
2023-01-07T13:19:55.384Z,1.98
2023-01-07T13:22:29.314Z,2.60
2023-01-07T13:25:12.136Z,2.47
2023-01-07T13:27:56.271Z,1.90
2023-01-07T13:30:25.944Z,2.30
2023-01-07T13:33:04.085Z,2.15
2023-01-07T13:35:57.529Z,2.20
2023-01-07T13:38:48.515Z,2.47
2023-01-07T13:41:35.392Z,2.90
2023-01-07T13:44:18.656Z,3.10
2023-01-07T13:46:46.769Z,3.05
2023-01-07T13:49:29.095Z,2.63
2023-01-07T13:51:56.729Z,2.72
2023-01-07T13:55:09.771Z,2.67
2023-01-07T13:57:44.413Z,2.55
2023-01-07T14:00:42.984Z,2.70
2023-01-07T14:03:33.068Z,1.50
2023-01-07T14:06:42.395Z,2.13
2023-01-07T14:09:35.142Z,1.70
2023-01-07T14:12:28.640Z,1.80
2023-01-07T14:15:09.094Z,1.80
2023-01-07T14:17:42.899Z,1.55
2023-01-07T14:20:15.777Z,2.33
2023-01-07T14:25:24.154Z,5.05
2023-01-07T14:28:05.132Z,4.60
2023-01-07T14:30:36.464Z,4.57
2023-01-07T14:33:07.344Z,5.43
2023-01-07T14:35:36.243Z,34.55
2023-01-07T14:38:42.464Z,13.60
2023-01-07T14:41:11.053Z,19.08
2023-01-07T14:44:03.552Z,17.67
2023-01-07T14:46:50.022Z,17.20
2023-01-07T14:49:42.691Z,21.48
2023-01-07T14:52:15.788Z,18.73
2023-01-07T14:55:01.927Z,17.25
2023-01-07T14:57:37.787Z,14.68
2023-01-07T15:00:22.013Z,9.90
2023-01-07T15:03:28.098Z,10.73
2023-01-07T15:06:18.543Z,6.68
2023-01-07T15:09:07.203Z,7.50
2023-01-07T15:11:53.084Z,4.78
2023-01-07T15:14:43.339Z,4.70
2023-01-07T15:17:13.209Z,4.65
2023-01-07T15:19:41.024Z,5.15
2023-01-07T15:22:18.578Z,6.68
2023-01-07T15:24:51.341Z,5.95
2023-01-07T15:29:53.255Z,5.32
2023-01-07T15:32:30.469Z,4.95
2023-01-07T15:34:58.474Z,4.32
2023-01-07T15:37:27.290Z,2.88
2023-01-07T15:39:56.938Z,3.33
2023-01-07T15:42:26.067Z,2.47
2023-01-07T15:44:55.225Z,3.10
2023-01-07T15:47:37.768Z,2.60
2023-01-07T15:50:27.638Z,2.33
2023-01-07T15:52:57.906Z,2.30
2023-01-07T15:55:27.349Z,2.33
2023-01-07T15:57:59.619Z,2.70
2023-01-07T16:00:27.096Z,2.50
2023-01-07T16:02:54.593Z,3.25
2023-01-07T16:05:22.222Z,2.90
2023-01-07T16:07:51.958Z,2.70
2023-01-07T16:10:24.896Z,2.88
2023-01-07T16:12:53.739Z,2.42
2023-01-07T16:15:23.528Z,2.88
2023-01-07T16:17:52.164Z,2.47
2023-01-07T16:20:25.007Z,3.00
2023-01-07T16:25:26.399Z,2.90
2023-01-07T16:27:55.525Z,2.80
2023-01-07T16:30:23.200Z,3.17
2023-01-07T16:32:50.810Z,3.38
2023-01-07T16:35:20.361Z,4.00
2023-01-07T16:37:48.740Z,3.25
2023-01-07T16:40:21.751Z,3.10
2023-01-07T16:42:50.730Z,3.22
2023-01-07T16:45:29.699Z,7.00
2023-01-07T16:48:15.235Z,3.50
2023-01-07T16:50:44.381Z,3.10
2023-01-07T16:53:30.560Z,3.35
2023-01-07T16:56:17.090Z,4.10
2023-01-07T16:58:49.556Z,12.30
2023-01-07T17:01:19.773Z,8.73
2023-01-07T17:03:50.049Z,16.17
2023-01-07T17:06:19.686Z,7.68
2023-01-07T17:08:51.663Z,15.73
2023-01-07T17:11:22.944Z,23.73
2023-01-07T17:13:52.044Z,19.98
2023-01-07T17:16:24.978Z,16.00
2023-01-07T17:18:52.893Z,17.88
2023-01-07T17:21:42.478Z,28.15
2023-01-07T17:24:24.443Z,32.75
2023-01-07T17:26:52.042Z,15.18
2023-01-07T17:29:20.984Z,44.58
2023-01-07T17:31:48.528Z,26.80
2023-01-07T17:34:16.717Z,13.00
2023-01-07T17:36:44.185Z,20.00
2023-01-07T17:39:11.817Z,7.63
2023-01-07T17:41:57.117Z,10.70
2023-01-07T17:44:26.410Z,12.30
2023-01-07T17:46:53.890Z,6.63
2023-01-07T17:49:21.440Z,3.92
2023-01-07T17:51:51.363Z,4.22
2023-01-07T17:54:21.377Z,3.97
2023-01-07T17:56:49.175Z,3.30
2023-01-07T17:59:17.897Z,3.83
2023-01-07T18:01:46.984Z,4.32
2023-01-07T18:04:14.558Z,4.22
2023-01-07T18:06:43.533Z,3.85
2023-01-07T18:09:11.414Z,4.72
2023-01-07T18:12:04.077Z,4.93
2023-01-07T18:14:32.463Z,4.68
2023-01-07T18:17:01.495Z,4.60
2023-01-07T18:19:28.970Z,5.70
2023-01-07T18:21:56.457Z,5.80
2023-01-07T18:24:24.117Z,5.63
2023-01-07T18:26:51.603Z,5.80
2023-01-07T18:29:19.093Z,8.40
2023-01-07T18:31:46.661Z,5.97
2023-01-07T18:34:16.462Z,4.95
2023-01-07T18:36:44.099Z,5.20
2023-01-07T18:39:18.973Z,4.35
2023-01-07T18:41:48.756Z,5.15
2023-01-07T18:44:16.296Z,12.35
2023-01-07T18:46:43.786Z,9.35
2023-01-07T18:49:11.342Z,29.80
2023-01-07T18:51:40.151Z,8.57
2023-01-07T18:54:07.910Z,6.68
2023-01-07T18:56:35.422Z,5.95
2023-01-07T18:59:02.928Z,6.97
2023-01-07T19:01:30.607Z,6.68
2023-01-07T19:03:58.517Z,6.20
2023-01-07T19:06:26.050Z,6.82
2023-01-07T19:08:56.421Z,6.72
2023-01-07T19:11:23.917Z,5.63
2023-01-07T19:13:51.449Z,5.90
2023-01-07T19:16:18.994Z,6.05
2023-01-07T19:18:46.489Z,5.30
2023-01-07T19:21:14.494Z,5.47
2023-01-07T19:23:42.021Z,5.63
2023-01-07T19:26:12.397Z,5.45
2023-01-07T19:28:39.917Z,5.45
2023-01-07T19:31:08.257Z,5.88
2023-01-07T19:33:36.123Z,6.90
2023-01-07T19:36:04.886Z,5.47
2023-01-07T19:38:32.384Z,5.70
2023-01-07T19:41:00.032Z,8.07
2023-01-07T19:43:28.848Z,5.50
2023-01-07T19:45:57.328Z,6.07
2023-01-07T19:48:24.988Z,6.35
2023-01-07T19:50:57.250Z,6.80
2023-01-07T19:53:25.511Z,5.68
2023-01-07T19:55:54.357Z,5.88
2023-01-07T19:58:22.096Z,5.65
2023-01-07T20:00:51.025Z,6.47
2023-01-07T20:03:18.624Z,5.57
2023-01-07T20:05:46.188Z,5.53
2023-01-07T20:08:13.816Z,6.03
2023-01-07T20:10:41.327Z,5.85
2023-01-07T20:13:08.784Z,6.13
2023-01-07T20:15:36.272Z,5.82
2023-01-07T20:18:05.452Z,6.05
2023-01-07T20:20:32.955Z,6.65
2023-01-07T20:23:00.424Z,7.00
2023-01-07T20:25:27.978Z,6.30
2023-01-07T20:27:58.510Z,5.03
2023-01-07T20:30:26.028Z,6.07
2023-01-07T20:32:53.513Z,5.70
2023-01-07T20:35:23.097Z,4.85
2023-01-07T20:37:50.565Z,4.88
2023-01-07T20:40:18.095Z,5.35
2023-01-07T20:42:45.573Z,5.63
2023-01-07T20:45:13.172Z,6.30
2023-01-07T20:47:41.086Z,5.22
2023-01-07T20:50:10.062Z,5.35
2023-01-07T20:52:38.861Z,5.13
2023-01-07T20:55:07.285Z,8.02
2023-01-07T20:57:34.805Z,5.53
2023-01-07T21:00:02.311Z,5.40
2023-01-07T21:02:29.900Z,5.50
2023-01-07T21:04:57.552Z,5.70
2023-01-07T21:07:25.119Z,4.40
2023-01-07T21:09:53.926Z,4.85
2023-01-07T21:12:21.507Z,4.60
2023-01-07T21:14:49.005Z,5.50
2023-01-07T21:17:16.665Z,5.72
2023-01-07T21:19:44.516Z,5.90
2023-01-07T21:22:12.102Z,5.68
2023-01-07T21:24:39.586Z,5.50
2023-01-07T21:27:08.410Z,5.47
2023-01-07T21:29:35.907Z,6.82
2023-01-07T21:32:04.228Z,6.07
2023-01-07T21:34:31.793Z,6.18
2023-01-07T21:36:59.291Z,6.28
2023-01-07T21:39:26.845Z,6.13
2023-01-07T21:41:54.351Z,5.45
2023-01-07T21:44:23.176Z,5.65
2023-01-07T21:46:50.673Z,5.78
2023-01-07T21:49:19.004Z,7.60
2023-01-07T21:51:46.480Z,6.85
2023-01-07T21:54:14.336Z,6.28
2023-01-07T21:56:41.788Z,6.13
2023-01-07T21:59:10.000Z,6.53
2023-01-07T22:01:38.919Z,6.22
2023-01-07T22:04:06.528Z,5.55
2023-01-07T22:06:35.350Z,10.77
2023-01-07T22:09:04.918Z,13.20
2023-01-07T22:11:33.374Z,20.75
2023-01-07T22:14:01.419Z,20.98
2023-01-07T22:16:30.995Z,13.35
2023-01-07T22:19:00.052Z,72.20
2023-01-07T22:21:27.921Z,15.60
2023-01-07T22:23:55.417Z,71.32
2023-01-07T22:26:22.917Z,130.38
2023-01-07T22:28:52.678Z,42.33
2023-01-07T22:31:21.841Z,42.17
2023-01-07T22:33:49.468Z,26.88
2023-01-07T22:36:20.877Z,28.55
2023-01-07T22:38:48.622Z,46.08
2023-01-07T22:41:16.158Z,45.03
2023-01-07T22:43:43.689Z,32.70
2023-01-07T22:46:12.796Z,17.65
2023-01-07T22:48:40.503Z,13.88
2023-01-07T22:51:10.291Z,20.55
2023-01-07T22:53:39.379Z,5.38
2023-01-07T22:56:07.580Z,5.03
2023-01-07T22:58:35.188Z,4.30
2023-01-07T23:01:12.704Z,4.35
2023-01-07T23:03:41.201Z,5.22
2023-01-07T23:06:09.600Z,5.43
2023-01-07T23:08:38.972Z,4.10
2023-01-07T23:11:06.978Z,5.00
2023-01-07T23:13:34.620Z,4.38
2023-01-07T23:16:02.826Z,9.82
2023-01-07T23:18:30.694Z,4.95
2023-01-07T23:20:58.656Z,4.13
2023-01-07T23:23:26.138Z,4.60
2023-01-07T23:25:54.913Z,4.07
2023-01-07T23:28:22.416Z,3.60
2023-01-07T23:30:49.887Z,4.40
2023-01-07T23:33:17.347Z,4.88
2023-01-07T23:35:44.844Z,4.13
2023-01-07T23:38:12.353Z,5.35
2023-01-07T23:40:40.444Z,4.85
2023-01-07T23:43:09.260Z,4.88
2023-01-07T23:45:36.846Z,4.93
2023-01-07T23:48:04.587Z,5.43
2023-01-07T23:50:32.095Z,5.20
2023-01-07T23:52:59.591Z,5.53
2023-01-07T23:55:27.107Z,5.65
2023-01-07T23:57:54.626Z,5.93
